Berit — ZDHX2 — position and weather

sailwx.info

Track history (hours):
 
Tides and Currents Weather Stations Pressure Air Temp Water Temp Dewpoint Dewpoint Depression Visibility Wind Speed Wind Dir Waves Ship Positions

Berit

Last reported at 2015-Apr-28 03:20 UTC. Time now 2015-Apr-28 03:53 UTC.
Position N 53°32' E 009°58'.

Length 83 m; draft 3.4 m.

Type: Cargo ship. MMSI: 236386000.

Date/timePositionNaut miles runAvg speedWind from/ knotsBaromVisibWave heightAir tempDewpointWater temp
2015-Apr-28 03:20N 53°32' E 009°58'0 0.0
2015-Apr-28 02:26N 53°32' E 009°58'0 0.0
2015-Apr-28 01:32N 53°32' E 009°58'0 0.0
2015-Apr-28 00:31N 53°32' E 009°58'0 0.0
2015-Apr-27 23:30N 53°32' E 009°58'0 0.0
2015-Apr-27 22:31N 53°32' E 009°58'0 0.0
2015-Apr-27 21:31N 53°32' E 009°58'0 0.0
2015-Apr-27 20:31N 53°32' E 009°58'3 3.3
2015-Apr-27 19:33N 53°32' E 009°53'9 9.1
2015-Apr-27 18:33N 53°35' E 009°38'9 9.0
2015-Apr-27 17:33N 53°42' E 009°29'10 9.6
2015-Apr-27 16:33N 53°50' E 009°21'9 9.3
2015-Apr-27 15:33N 53°52' E 009°05'9 9.0
2015-Apr-27 14:33N 53°50' E 008°50'8 7.7
2015-Apr-27 13:33N 53°55' E 008°40'8 7.6
2015-Apr-27 12:33N 53°58' E 008°29'9 8.5
2015-Apr-27 11:33N 53°59' E 008°14'9 9.2
2015-Apr-27 10:33N 53°57' E 007°59'8 8.3
2015-Apr-27 09:33N 53°51' E 008°07'1111.3
2015-Apr-27 08:33N 53°42' E 008°20'1110.9
2015-Apr-27 07:33N 53°34' E 008°33'0 0.0
2015-Apr-27 06:33N 53°34' E 008°33'0 0.0
2015-Apr-27 05:33N 53°34' E 008°33'0 0.0
2015-Apr-27 04:33N 53°34' E 008°33'0 0.0
2015-Apr-27 03:33N 53°34' E 008°33'0 0.0
2015-Apr-27 02:33N 53°34' E 008°33'0 0.0
2015-Apr-27 01:33N 53°34' E 008°33'0 0.0
2015-Apr-27 00:33N 53°34' E 008°33'0 0.0
2015-Apr-26 23:33N 53°34' E 008°33'0 0.0
2015-Apr-26 22:33N 53°34' E 008°33'0 0.0
2015-Apr-26 21:33N 53°34' E 008°33'0 0.0
2015-Apr-26 20:33N 53°34' E 008°33'0 0.0
2015-Apr-26 19:33N 53°34' E 008°33'0 0.0
2015-Apr-26 18:33N 53°34' E 008°33'0 0.0
2015-Apr-26 17:33N 53°34' E 008°33'0 0.0
2015-Apr-26 16:33N 53°34' E 008°33'0 0.0
2015-Apr-26 15:33N 53°34' E 008°33'0 0.0
2015-Apr-26 14:33N 53°34' E 008°33'0 0.0
2015-Apr-26 13:33N 53°34' E 008°33'0 0.0
2015-Apr-26 12:33N 53°34' E 008°33'0 0.0
2015-Apr-26 11:33N 53°34' E 008°33'0 0.0
2015-Apr-26 10:33N 53°34' E 008°33'0 0.0
2015-Apr-26 09:33N 53°34' E 008°33'0 0.0
2015-Apr-26 08:33N 53°34' E 008°33'0 0.0
2015-Apr-26 07:33N 53°34' E 008°33'0 0.0
2015-Apr-26 06:33N 53°34' E 008°33'5 5.0
2015-Apr-26 05:33N 53°38' E 008°27'10 9.9
2015-Apr-26 04:33N 53°44' E 008°14'1110.6
2015-Apr-26 03:33N 53°51' E 008°00'1110.9
2015-Apr-26 02:33N 53°54' E 007°43'1110.4
2015-Apr-26 01:33N 54°03' E 007°33'1010.4
2015-Apr-26 00:33N 54°12' E 007°26'1010.3
2015-Apr-25 23:33N 54°23' E 007°26'1010.1
2015-Apr-25 22:33N 54°33' E 007°25'11 9.8
2015-Apr-25 21:23N 54°44' E 007°24'8 9.5
2015-Apr-25 20:33N 54°52' E 007°24'9 9.3
2015-Apr-25 19:33N 55°01' E 007°23'9 9.1
2015-Apr-25 18:33N 55°10' E 007°23'9 8.8
2015-Apr-25 17:34N 55°19' E 007°21'9 8.9
2015-Apr-25 16:33N 55°28' E 007°21'159 4.2
2015-Apr-24 02:17N 58°05' E 006°28'810.9
2015-Apr-24 01:33N 58°10' E 006°17'1110.8
2015-Apr-24 00:33N 58°17' E 006°02'1111.2
2015-Apr-23 23:33N 58°25' E 005°47'2310.5
2015-Apr-23 21:21N 58°45' E 005°25'7 9.0
2015-Apr-23 20:33N 58°52' E 005°30'1110.8
2015-Apr-23 19:33N 59°02' E 005°34'8 7.9
2015-Apr-23 18:33N 58°57' E 005°46'1 0.9
2015-Apr-23 17:32N 58°57' E 005°45'0 0.0
2015-Apr-23 16:32N 58°57' E 005°45'0 0.0
2015-Apr-23 15:32N 58°57' E 005°45'0 0.0
2015-Apr-23 14:32N 58°57' E 005°45'0 0.0
2015-Apr-23 13:32N 58°57' E 005°45'0 0.0
2015-Apr-23 12:32N 58°57' E 005°45'0 0.0
2015-Apr-23 11:32N 58°57' E 005°45'0 0.0
2015-Apr-23 10:32N 58°57' E 005°45'0 0.0
2015-Apr-23 09:32N 58°57' E 005°45'0 0.0
2015-Apr-23 08:32N 58°57' E 005°45'0 0.0
2015-Apr-23 07:32N 58°57' E 005°45'0 0.0
2015-Apr-23 06:32N 58°57' E 005°45'0 0.0
2015-Apr-23 05:32N 58°57' E 005°45'0 0.0
2015-Apr-23 04:32N 58°57' E 005°45'0 0.0
2015-Apr-23 03:32N 58°57' E 005°45'0 0.0
2015-Apr-23 02:32N 58°57' E 005°45'0 0.0
2015-Apr-23 01:32N 58°57' E 005°45'0 0.0
2015-Apr-23 00:32N 58°57' E 005°45'0 0.0
2015-Apr-22 23:32N 58°57' E 005°45'0 0.0
2015-Apr-22 22:32N 58°57' E 005°45'0 0.0
2015-Apr-22 21:32N 58°57' E 005°45'0 0.0
2015-Apr-22 20:32N 58°57' E 005°45'0 0.0
2015-Apr-22 19:32N 58°57' E 005°45'0 0.0
2015-Apr-22 18:32N 58°57' E 005°45'0 0.0
2015-Apr-22 17:32N 58°57' E 005°45'0 0.0
2015-Apr-22 16:32N 58°57' E 005°45'0 0.0
2015-Apr-22 15:32N 58°57' E 005°45'0 0.0
2015-Apr-22 14:32N 58°57' E 005°45'0 0.0
2015-Apr-22 13:32N 58°57' E 005°45'0 0.0
2015-Apr-22 12:32N 58°57' E 005°45'0 0.0
2015-Apr-22 11:32N 58°57' E 005°45'1 0.6
2015-Apr-22 10:33N 58°57' E 005°46'8 7.6
2015-Apr-22 09:33N 59°02' E 005°35'9 9.1
2015-Apr-22 08:33N 58°53' E 005°32'8 7.5
2015-Apr-22 07:32N 58°47' E 005°25'16 7.6
2015-Apr-22 05:28N 58°32' E 005°37'8 9.0
2015-Apr-22 04:33N 58°26' E 005°47'9 8.9
2015-Apr-22 03:33N 58°20' E 005°59'9 8.5
2015-Apr-22 02:32N 58°14' E 006°10'9 8.6
2015-Apr-22 01:32N 58°07' E 006°22'88 8.8
2015-Apr-21 15:33N 57°52' E 009°05'46 9.0
2015-Apr-21 10:23N 57°49' E 010°32'8 9.0
2015-Apr-21 09:33N 57°48' E 010°46'1010.0
2015-Apr-21 08:33N 57°41' E 010°60'1010.0
2015-Apr-21 07:33N 57°34' E 011°13'1010.0
2015-Apr-21 06:33N 57°27' E 011°26'1010.0
2015-Apr-21 05:33N 57°18' E 011°32'9 9.1
2015-Apr-21 04:33N 57°09' E 011°38'9 9.0
2015-Apr-21 03:33N 57°01' E 011°44'9 8.9
2015-Apr-21 02:33N 56°52' E 011°49'9 8.7
2015-Apr-21 01:33N 56°44' E 011°54'9 8.6
2015-Apr-21 00:33N 56°36' E 011°58'9 9.3
2015-Apr-20 23:33N 56°27' E 012°01'9 9.4
2015-Apr-20 22:33N 56°18' E 012°06'10 9.8
2015-Apr-20 21:33N 56°12' E 012°21'1110.6
2015-Apr-20 20:33N 56°05' E 012°36'10 9.8
2015-Apr-20 19:33N 55°57' E 012°43'10 9.7
2015-Apr-20 18:33N 55°47' E 012°43'1110.5
2015-Apr-20 17:33N 55°37' E 012°42'1010.0
2015-Apr-20 16:33N 55°27' E 012°43'9 8.7
2015-Apr-20 15:33N 55°18' E 012°44'9 9.5
2015-Apr-20 14:33N 55°16' E 013°00'10 9.6
2015-Apr-20 13:33N 55°15' E 013°17'37 9.4
2015-Apr-20 09:33N 55°07' E 014°22'10 9.9
2015-Apr-20 08:33N 55°01' E 014°35'9 9.4
2015-Apr-20 07:33N 54°57' E 014°50'1010.2
2015-Apr-20 06:33N 54°58' E 015°08'87 9.5
2015-Apr-19 21:22N 54°56' E 017°40'19 9.0
2015-Apr-19 19:16N 54°53' E 018°12'6 8.8
2015-Apr-19 18:33N 54°52' E 018°23'9 8.9
2015-Apr-19 17:33N 54°55' E 018°37'9 8.6
2015-Apr-19 16:33N 54°53' E 018°52'9 9.1
2015-Apr-19 15:33N 54°50' E 019°07'9 9.3
2015-Apr-19 14:33N 54°47' E 019°22'9 9.3
2015-Apr-19 13:33N 54°44' E 019°37'9 9.2
2015-Apr-19 12:32N 54°39' E 019°51'13 1.0
2015-Apr-18 23:24N 54°41' E 020°13'  
Track history (hours):
 
Tides and Currents Weather Stations Pressure Air Temp Water Temp Dewpoint Dewpoint Depression Visibility Wind Speed Wind Dir Waves Ship Positions

Berit

Last reported at 2015-Apr-28 03:20 UTC. Time now 2015-Apr-28 03:53 UTC.
Position N 53°32' E 009°58'.

Length 83 m; draft 3.4 m.

Type: Cargo ship. MMSI: 236386000.

Date/timePositionNaut miles runAvg speedWind from/ knotsBaromVisibWave heightAir tempDewpointWater temp
2015-Apr-28 03:20N 53°32' E 009°58'0 0.0
2015-Apr-28 02:26N 53°32' E 009°58'0 0.0
2015-Apr-28 01:32N 53°32' E 009°58'0 0.0
2015-Apr-28 00:31N 53°32' E 009°58'0 0.0
2015-Apr-27 23:30N 53°32' E 009°58'0 0.0
2015-Apr-27 22:31N 53°32' E 009°58'0 0.0
2015-Apr-27 21:31N 53°32' E 009°58'0 0.0
2015-Apr-27 20:31N 53°32' E 009°58'3 3.3
2015-Apr-27 19:33N 53°32' E 009°53'9 9.1
2015-Apr-27 18:33N 53°35' E 009°38'9 9.0
2015-Apr-27 17:33N 53°42' E 009°29'10 9.6
2015-Apr-27 16:33N 53°50' E 009°21'9 9.3
2015-Apr-27 15:33N 53°52' E 009°05'9 9.0
2015-Apr-27 14:33N 53°50' E 008°50'8 7.7
2015-Apr-27 13:33N 53°55' E 008°40'8 7.6
2015-Apr-27 12:33N 53°58' E 008°29'9 8.5
2015-Apr-27 11:33N 53°59' E 008°14'9 9.2
2015-Apr-27 10:33N 53°57' E 007°59'8 8.3
2015-Apr-27 09:33N 53°51' E 008°07'1111.3
2015-Apr-27 08:33N 53°42' E 008°20'1110.9
2015-Apr-27 07:33N 53°34' E 008°33'0 0.0
2015-Apr-27 06:33N 53°34' E 008°33'0 0.0
2015-Apr-27 05:33N 53°34' E 008°33'0 0.0
2015-Apr-27 04:33N 53°34' E 008°33'0 0.0
2015-Apr-27 03:33N 53°34' E 008°33'0 0.0
2015-Apr-27 02:33N 53°34' E 008°33'0 0.0
2015-Apr-27 01:33N 53°34' E 008°33'0 0.0
2015-Apr-27 00:33N 53°34' E 008°33'0 0.0
2015-Apr-26 23:33N 53°34' E 008°33'0 0.0
2015-Apr-26 22:33N 53°34' E 008°33'0 0.0
2015-Apr-26 21:33N 53°34' E 008°33'0 0.0
2015-Apr-26 20:33N 53°34' E 008°33'0 0.0
2015-Apr-26 19:33N 53°34' E 008°33'0 0.0
2015-Apr-26 18:33N 53°34' E 008°33'0 0.0
2015-Apr-26 17:33N 53°34' E 008°33'0 0.0
2015-Apr-26 16:33N 53°34' E 008°33'0 0.0
2015-Apr-26 15:33N 53°34' E 008°33'0 0.0
2015-Apr-26 14:33N 53°34' E 008°33'0 0.0
2015-Apr-26 13:33N 53°34' E 008°33'0 0.0
2015-Apr-26 12:33N 53°34' E 008°33'0 0.0
2015-Apr-26 11:33N 53°34' E 008°33'0 0.0
2015-Apr-26 10:33N 53°34' E 008°33'0 0.0
2015-Apr-26 09:33N 53°34' E 008°33'0 0.0
2015-Apr-26 08:33N 53°34' E 008°33'0 0.0
2015-Apr-26 07:33N 53°34' E 008°33'0 0.0
2015-Apr-26 06:33N 53°34' E 008°33'5 5.0
2015-Apr-26 05:33N 53°38' E 008°27'10 9.9
2015-Apr-26 04:33N 53°44' E 008°14'1110.6
2015-Apr-26 03:33N 53°51' E 008°00'1110.9
2015-Apr-26 02:33N 53°54' E 007°43'1110.4
2015-Apr-26 01:33N 54°03' E 007°33'1010.4
2015-Apr-26 00:33N 54°12' E 007°26'1010.3
2015-Apr-25 23:33N 54°23' E 007°26'1010.1
2015-Apr-25 22:33N 54°33' E 007°25'11 9.8
2015-Apr-25 21:23N 54°44' E 007°24'8 9.5
2015-Apr-25 20:33N 54°52' E 007°24'9 9.3
2015-Apr-25 19:33N 55°01' E 007°23'9 9.1
2015-Apr-25 18:33N 55°10' E 007°23'9 8.8
2015-Apr-25 17:34N 55°19' E 007°21'9 8.9
2015-Apr-25 16:33N 55°28' E 007°21'159 4.2
2015-Apr-24 02:17N 58°05' E 006°28'810.9
2015-Apr-24 01:33N 58°10' E 006°17'1110.8
2015-Apr-24 00:33N 58°17' E 006°02'1111.2
2015-Apr-23 23:33N 58°25' E 005°47'2310.5
2015-Apr-23 21:21N 58°45' E 005°25'7 9.0
2015-Apr-23 20:33N 58°52' E 005°30'1110.8
2015-Apr-23 19:33N 59°02' E 005°34'8 7.9
2015-Apr-23 18:33N 58°57' E 005°46'1 0.9
2015-Apr-23 17:32N 58°57' E 005°45'0 0.0
2015-Apr-23 16:32N 58°57' E 005°45'0 0.0
2015-Apr-23 15:32N 58°57' E 005°45'0 0.0
2015-Apr-23 14:32N 58°57' E 005°45'0 0.0
2015-Apr-23 13:32N 58°57' E 005°45'0 0.0
2015-Apr-23 12:32N 58°57' E 005°45'0 0.0
2015-Apr-23 11:32N 58°57' E 005°45'0 0.0
2015-Apr-23 10:32N 58°57' E 005°45'0 0.0
2015-Apr-23 09:32N 58°57' E 005°45'0 0.0
2015-Apr-23 08:32N 58°57' E 005°45'0 0.0
2015-Apr-23 07:32N 58°57' E 005°45'0 0.0
2015-Apr-23 06:32N 58°57' E 005°45'0 0.0
2015-Apr-23 05:32N 58°57' E 005°45'0 0.0
2015-Apr-23 04:32N 58°57' E 005°45'0 0.0
2015-Apr-23 03:32N 58°57' E 005°45'0 0.0
2015-Apr-23 02:32N 58°57' E 005°45'0 0.0
2015-Apr-23 01:32N 58°57' E 005°45'0 0.0
2015-Apr-23 00:32N 58°57' E 005°45'0 0.0
2015-Apr-22 23:32N 58°57' E 005°45'0 0.0
2015-Apr-22 22:32N 58°57' E 005°45'0 0.0
2015-Apr-22 21:32N 58°57' E 005°45'0 0.0
2015-Apr-22 20:32N 58°57' E 005°45'0 0.0
2015-Apr-22 19:32N 58°57' E 005°45'0 0.0
2015-Apr-22 18:32N 58°57' E 005°45'0 0.0
2015-Apr-22 17:32N 58°57' E 005°45'0 0.0
2015-Apr-22 16:32N 58°57' E 005°45'0 0.0
2015-Apr-22 15:32N 58°57' E 005°45'0 0.0
2015-Apr-22 14:32N 58°57' E 005°45'0 0.0
2015-Apr-22 13:32N 58°57' E 005°45'0 0.0
2015-Apr-22 12:32N 58°57' E 005°45'0 0.0
2015-Apr-22 11:32N 58°57' E 005°45'1 0.6
2015-Apr-22 10:33N 58°57' E 005°46'8 7.6
2015-Apr-22 09:33N 59°02' E 005°35'9 9.1
2015-Apr-22 08:33N 58°53' E 005°32'8 7.5
2015-Apr-22 07:32N 58°47' E 005°25'16 7.6
2015-Apr-22 05:28N 58°32' E 005°37'8 9.0
2015-Apr-22 04:33N 58°26' E 005°47'9 8.9
2015-Apr-22 03:33N 58°20' E 005°59'9 8.5
2015-Apr-22 02:32N 58°14' E 006°10'9 8.6
2015-Apr-22 01:32N 58°07' E 006°22'88 8.8
2015-Apr-21 15:33N 57°52' E 009°05'46 9.0
2015-Apr-21 10:23N 57°49' E 010°32'8 9.0
2015-Apr-21 09:33N 57°48' E 010°46'1010.0
2015-Apr-21 08:33N 57°41' E 010°60'1010.0
2015-Apr-21 07:33N 57°34' E 011°13'1010.0
2015-Apr-21 06:33N 57°27' E 011°26'1010.0
2015-Apr-21 05:33N 57°18' E 011°32'9 9.1
2015-Apr-21 04:33N 57°09' E 011°38'9 9.0
2015-Apr-21 03:33N 57°01' E 011°44'9 8.9
2015-Apr-21 02:33N 56°52' E 011°49'9 8.7
2015-Apr-21 01:33N 56°44' E 011°54'9 8.6
2015-Apr-21 00:33N 56°36' E 011°58'9 9.3
2015-Apr-20 23:33N 56°27' E 012°01'9 9.4
2015-Apr-20 22:33N 56°18' E 012°06'10 9.8
2015-Apr-20 21:33N 56°12' E 012°21'1110.6
2015-Apr-20 20:33N 56°05' E 012°36'10 9.8
2015-Apr-20 19:33N 55°57' E 012°43'10 9.7
2015-Apr-20 18:33N 55°47' E 012°43'1110.5
2015-Apr-20 17:33N 55°37' E 012°42'1010.0
2015-Apr-20 16:33N 55°27' E 012°43'9 8.7
2015-Apr-20 15:33N 55°18' E 012°44'9 9.5
2015-Apr-20 14:33N 55°16' E 013°00'10 9.6
2015-Apr-20 13:33N 55°15' E 013°17'37 9.4
2015-Apr-20 09:33N 55°07' E 014°22'10 9.9
2015-Apr-20 08:33N 55°01' E 014°35'9 9.4
2015-Apr-20 07:33N 54°57' E 014°50'1010.2
2015-Apr-20 06:33N 54°58' E 015°08'87 9.5
2015-Apr-19 21:22N 54°56' E 017°40'19 9.0
2015-Apr-19 19:16N 54°53' E 018°12'6 8.8
2015-Apr-19 18:33N 54°52' E 018°23'9 8.9
2015-Apr-19 17:33N 54°55' E 018°37'9 8.6
2015-Apr-19 16:33N 54°53' E 018°52'9 9.1
2015-Apr-19 15:33N 54°50' E 019°07'9 9.3
2015-Apr-19 14:33N 54°47' E 019°22'9 9.3
2015-Apr-19 13:33N 54°44' E 019°37'9 9.2
2015-Apr-19 12:32N 54°39' E 019°51'13 1.0
2015-Apr-18 23:24N 54°41' E 020°13'  

Dump ship's entire track history